sensor_id;sensor_type;location;lat;lon;timestamp;P1;durP1;ratioP1;P2;durP2;ratioP2
21601;SDS011;10963;50.934;4.668;2023-01-08T00:02:13;9.47;;;3.70;;
21601;SDS011;10963;50.934;4.668;2023-01-08T00:04:38;10.13;;;3.53;;
21601;SDS011;10963;50.934;4.668;2023-01-08T00:07:04;6.43;;;3.60;;
21601;SDS011;10963;50.934;4.668;2023-01-08T00:09:30;5.53;;;3.40;;
21601;SDS011;10963;50.934;4.668;2023-01-08T00:11:56;7.10;;;3.50;;
21601;SDS011;10963;50.934;4.668;2023-01-08T00:14:21;7.40;;;3.03;;
21601;SDS011;10963;50.934;4.668;2023-01-08T00:16:49;12.67;;;3.77;;
21601;SDS011;10963;50.934;4.668;2023-01-08T00:19:16;11.27;;;4.10;;
21601;SDS011;10963;50.934;4.668;2023-01-08T00:21:42;11.00;;;3.57;;
21601;SDS011;10963;50.934;4.668;2023-01-08T00:24:07;8.83;;;3.27;;
21601;SDS011;10963;50.934;4.668;2023-01-08T00:26:33;5.57;;;3.47;;
21601;SDS011;10963;50.934;4.668;2023-01-08T00:29:01;9.67;;;3.60;;
21601;SDS011;10963;50.934;4.668;2023-01-08T00:31:27;7.17;;;3.17;;
21601;SDS011;10963;50.934;4.668;2023-01-08T00:33:53;9.27;;;3.60;;
21601;SDS011;10963;50.934;4.668;2023-01-08T00:36:19;8.93;;;3.40;;
21601;SDS011;10963;50.934;4.668;2023-01-08T00:38:49;6.93;;;3.20;;
21601;SDS011;10963;50.934;4.668;2023-01-08T00:41:15;4.70;;;3.63;;
21601;SDS011;10963;50.934;4.668;2023-01-08T00:43:41;3.63;;;1.87;;
21601;SDS011;10963;50.934;4.668;2023-01-08T00:46:07;4.73;;;1.37;;
21601;SDS011;10963;50.934;4.668;2023-01-08T00:48:35;5.73;;;1.43;;
21601;SDS011;10963;50.934;4.668;2023-01-08T00:51:03;3.67;;;0.90;;
21601;SDS011;10963;50.934;4.668;2023-01-08T00:53:30;3.10;;;0.93;;
21601;SDS011;10963;50.934;4.668;2023-01-08T00:56:03;0.67;;;0.60;;
21601;SDS011;10963;50.934;4.668;2023-01-08T00:58:32;1.70;;;0.80;;
21601;SDS011;10963;50.934;4.668;2023-01-08T01:00:58;0.73;;;0.73;;
21601;SDS011;10963;50.934;4.668;2023-01-08T01:03:24;3.20;;;1.10;;
21601;SDS011;10963;50.934;4.668;2023-01-08T01:05:58;2.63;;;0.90;;
21601;SDS011;10963;50.934;4.668;2023-01-08T01:08:24;2.53;;;0.70;;
21601;SDS011;10963;50.934;4.668;2023-01-08T01:10:50;5.03;;;0.83;;
21601;SDS011;10963;50.934;4.668;2023-01-08T01:13:16;3.80;;;0.90;;
21601;SDS011;10963;50.934;4.668;2023-01-08T01:15:41;1.40;;;0.97;;
21601;SDS011;10963;50.934;4.668;2023-01-08T01:18:07;3.63;;;1.13;;
21601;SDS011;10963;50.934;4.668;2023-01-08T01:20:33;1.97;;;0.80;;
21601;SDS011;10963;50.934;4.668;2023-01-08T01:23:01;1.97;;;0.80;;
21601;SDS011;10963;50.934;4.668;2023-01-08T01:25:28;4.43;;;0.97;;
21601;SDS011;10963;50.934;4.668;2023-01-08T01:28:00;3.13;;;0.90;;
21601;SDS011;10963;50.934;4.668;2023-01-08T01:30:30;2.50;;;0.80;;
21601;SDS011;10963;50.934;4.668;2023-01-08T01:32:56;2.67;;;1.03;;
21601;SDS011;10963;50.934;4.668;2023-01-08T01:35:21;2.67;;;0.87;;
21601;SDS011;10963;50.934;4.668;2023-01-08T01:37:47;2.23;;;0.80;;
21601;SDS011;10963;50.934;4.668;2023-01-08T01:40:15;2.23;;;0.90;;
21601;SDS011;10963;50.934;4.668;2023-01-08T01:42:41;4.17;;;1.83;;
21601;SDS011;10963;50.934;4.668;2023-01-08T01:45:17;3.40;;;1.00;;
21601;SDS011;10963;50.934;4.668;2023-01-08T01:47:46;5.93;;;1.20;;
21601;SDS011;10963;50.934;4.668;2023-01-08T01:50:27;4.13;;;1.07;;
21601;SDS011;10963;50.934;4.668;2023-01-08T01:53:00;4.53;;;1.27;;
21601;SDS011;10963;50.934;4.668;2023-01-08T01:55:30;3.73;;;1.17;;
21601;SDS011;10963;50.934;4.668;2023-01-08T01:58:00;2.23;;;1.00;;
21601;SDS011;10963;50.934;4.668;2023-01-08T02:00:32;2.07;;;1.37;;
21601;SDS011;10963;50.934;4.668;2023-01-08T02:02:58;3.20;;;1.07;;
21601;SDS011;10963;50.934;4.668;2023-01-08T02:05:29;1.43;;;0.90;;
21601;SDS011;10963;50.934;4.668;2023-01-08T02:08:10;6.23;;;1.33;;
21601;SDS011;10963;50.934;4.668;2023-01-08T02:11:03;2.57;;;1.23;;
21601;SDS011;10963;50.934;4.668;2023-01-08T02:13:38;5.83;;;1.23;;
21601;SDS011;10963;50.934;4.668;2023-01-08T02:16:15;5.30;;;1.20;;
21601;SDS011;10963;50.934;4.668;2023-01-08T02:18:55;7.43;;;1.80;;
21601;SDS011;10963;50.934;4.668;2023-01-08T02:24:53;5.73;;;1.40;;
21601;SDS011;10963;50.934;4.668;2023-01-08T02:27:27;4.70;;;1.50;;
21601;SDS011;10963;50.934;4.668;2023-01-08T02:29:57;6.73;;;1.60;;
21601;SDS011;10963;50.934;4.668;2023-01-08T02:32:25;3.93;;;1.57;;
21601;SDS011;10963;50.934;4.668;2023-01-08T02:34:59;7.13;;;1.47;;
21601;SDS011;10963;50.934;4.668;2023-01-08T02:37:27;7.87;;;1.77;;
21601;SDS011;10963;50.934;4.668;2023-01-08T02:40:09;2.93;;;1.33;;
21601;SDS011;10963;50.934;4.668;2023-01-08T02:42:56;8.20;;;1.90;;
21601;SDS011;10963;50.934;4.668;2023-01-08T02:45:52;5.87;;;1.90;;
21601;SDS011;10963;50.934;4.668;2023-01-08T02:48:35;4.07;;;1.70;;
21601;SDS011;10963;50.934;4.668;2023-01-08T02:51:23;3.40;;;2.30;;
21601;SDS011;10963;50.934;4.668;2023-01-08T02:53:56;5.53;;;2.13;;
21601;SDS011;10963;50.934;4.668;2023-01-08T02:56:30;5.33;;;2.43;;
21601;SDS011;10963;50.934;4.668;2023-01-08T02:59:00;7.23;;;2.80;;
21601;SDS011;10963;50.934;4.668;2023-01-08T03:01:31;9.20;;;2.50;;
21601;SDS011;10963;50.934;4.668;2023-01-08T03:04:18;8.90;;;2.70;;
21601;SDS011;10963;50.934;4.668;2023-01-08T03:06:46;8.23;;;3.40;;
21601;SDS011;10963;50.934;4.668;2023-01-08T03:09:15;8.47;;;3.73;;
21601;SDS011;10963;50.934;4.668;2023-01-08T03:11:48;6.93;;;3.37;;
21601;SDS011;10963;50.934;4.668;2023-01-08T03:19:39;4.47;;;2.20;;
21601;SDS011;10963;50.934;4.668;2023-01-08T03:22:14;2.67;;;1.10;;
21601;SDS011;10963;50.934;4.668;2023-01-08T03:24:42;1.80;;;1.40;;
21601;SDS011;10963;50.934;4.668;2023-01-08T03:27:16;1.70;;;1.07;;
21601;SDS011;10963;50.934;4.668;2023-01-08T03:29:48;1.90;;;1.10;;
21601;SDS011;10963;50.934;4.668;2023-01-08T03:32:19;1.90;;;1.10;;
21601;SDS011;10963;50.934;4.668;2023-01-08T03:34:48;4.73;;;1.30;;
21601;SDS011;10963;50.934;4.668;2023-01-08T03:37:18;2.57;;;1.40;;
21601;SDS011;10963;50.934;4.668;2023-01-08T03:40:09;3.00;;;1.20;;
21601;SDS011;10963;50.934;4.668;2023-01-08T03:42:45;1.87;;;1.47;;
21601;SDS011;10963;50.934;4.668;2023-01-08T03:45:11;2.80;;;1.20;;
21601;SDS011;10963;50.934;4.668;2023-01-08T03:47:39;5.03;;;1.37;;
21601;SDS011;10963;50.934;4.668;2023-01-08T03:50:10;7.17;;;1.47;;
21601;SDS011;10963;50.934;4.668;2023-01-08T03:52:41;3.03;;;1.27;;
21601;SDS011;10963;50.934;4.668;2023-01-08T03:55:07;5.10;;;1.30;;
21601;SDS011;10963;50.934;4.668;2023-01-08T03:57:33;3.83;;;1.90;;
21601;SDS011;10963;50.934;4.668;2023-01-08T04:00:01;3.33;;;1.33;;
21601;SDS011;10963;50.934;4.668;2023-01-08T04:02:28;3.60;;;1.90;;
21601;SDS011;10963;50.934;4.668;2023-01-08T04:04:56;4.10;;;1.40;;
21601;SDS011;10963;50.934;4.668;2023-01-08T04:07:23;4.97;;;0.93;;
21601;SDS011;10963;50.934;4.668;2023-01-08T04:09:49;5.60;;;1.20;;
21601;SDS011;10963;50.934;4.668;2023-01-08T04:12:17;8.33;;;1.20;;
21601;SDS011;10963;50.934;4.668;2023-01-08T04:14:45;5.63;;;1.10;;
21601;SDS011;10963;50.934;4.668;2023-01-08T04:17:13;2.40;;;1.07;;
21601;SDS011;10963;50.934;4.668;2023-01-08T04:19:43;5.00;;;1.07;;
21601;SDS011;10963;50.934;4.668;2023-01-08T04:22:10;3.93;;;0.73;;
21601;SDS011;10963;50.934;4.668;2023-01-08T04:24:36;7.03;;;0.80;;
21601;SDS011;10963;50.934;4.668;2023-01-08T04:27:04;6.67;;;1.13;;
21601;SDS011;10963;50.934;4.668;2023-01-08T04:29:35;5.13;;;0.90;;
21601;SDS011;10963;50.934;4.668;2023-01-08T04:32:00;10.07;;;0.87;;
21601;SDS011;10963;50.934;4.668;2023-01-08T04:34:29;5.77;;;1.10;;
21601;SDS011;10963;50.934;4.668;2023-01-08T04:36:54;7.00;;;0.93;;
21601;SDS011;10963;50.934;4.668;2023-01-08T04:39:25;5.93;;;0.97;;
21601;SDS011;10963;50.934;4.668;2023-01-08T04:41:53;7.57;;;1.40;;
21601;SDS011;10963;50.934;4.668;2023-01-08T04:44:19;8.83;;;1.53;;
21601;SDS011;10963;50.934;4.668;2023-01-08T04:46:47;8.30;;;1.23;;
21601;SDS011;10963;50.934;4.668;2023-01-08T04:49:13;4.50;;;1.33;;
21601;SDS011;10963;50.934;4.668;2023-01-08T04:51:38;5.63;;;1.50;;
21601;SDS011;10963;50.934;4.668;2023-01-08T04:54:09;14.00;;;1.53;;
21601;SDS011;10963;50.934;4.668;2023-01-08T04:56:37;6.60;;;1.30;;
21601;SDS011;10963;50.934;4.668;2023-01-08T04:59:05;8.50;;;1.00;;
21601;SDS011;10963;50.934;4.668;2023-01-08T05:01:35;8.30;;;1.47;;
21601;SDS011;10963;50.934;4.668;2023-01-08T05:04:02;7.10;;;1.37;;
21601;SDS011;10963;50.934;4.668;2023-01-08T05:06:31;8.53;;;2.10;;
21601;SDS011;10963;50.934;4.668;2023-01-08T05:08:57;7.80;;;2.07;;
21601;SDS011;10963;50.934;4.668;2023-01-08T05:11:23;6.63;;;2.00;;
21601;SDS011;10963;50.934;4.668;2023-01-08T05:13:50;6.97;;;1.87;;
21601;SDS011;10963;50.934;4.668;2023-01-08T05:16:16;5.77;;;1.90;;
21601;SDS011;10963;50.934;4.668;2023-01-08T05:18:42;5.57;;;1.60;;
21601;SDS011;10963;50.934;4.668;2023-01-08T05:21:09;8.43;;;1.83;;
21601;SDS011;10963;50.934;4.668;2023-01-08T05:23:35;8.97;;;2.53;;
21601;SDS011;10963;50.934;4.668;2023-01-08T05:26:02;8.93;;;2.37;;
21601;SDS011;10963;50.934;4.668;2023-01-08T05:28:29;10.87;;;2.97;;
21601;SDS011;10963;50.934;4.668;2023-01-08T05:30:55;9.23;;;1.90;;
21601;SDS011;10963;50.934;4.668;2023-01-08T05:33:22;6.07;;;1.20;;
21601;SDS011;10963;50.934;4.668;2023-01-08T05:35:50;8.07;;;1.60;;
21601;SDS011;10963;50.934;4.668;2023-01-08T05:38:16;5.50;;;1.30;;
21601;SDS011;10963;50.934;4.668;2023-01-08T05:40:42;4.90;;;1.20;;
21601;SDS011;10963;50.934;4.668;2023-01-08T05:43:07;5.27;;;1.17;;
21601;SDS011;10963;50.934;4.668;2023-01-08T05:45:36;3.23;;;0.90;;
21601;SDS011;10963;50.934;4.668;2023-01-08T05:48:05;7.27;;;1.30;;
21601;SDS011;10963;50.934;4.668;2023-01-08T05:50:38;9.20;;;1.57;;
21601;SDS011;10963;50.934;4.668;2023-01-08T05:53:07;7.70;;;1.30;;
21601;SDS011;10963;50.934;4.668;2023-01-08T05:55:36;5.87;;;1.27;;
21601;SDS011;10963;50.934;4.668;2023-01-08T05:58:04;5.03;;;1.20;;
21601;SDS011;10963;50.934;4.668;2023-01-08T06:00:33;9.17;;;1.40;;
21601;SDS011;10963;50.934;4.668;2023-01-08T06:02:59;11.97;;;2.10;;
21601;SDS011;10963;50.934;4.668;2023-01-08T06:05:28;6.17;;;1.63;;
21601;SDS011;10963;50.934;4.668;2023-01-08T06:07:56;8.63;;;1.30;;
21601;SDS011;10963;50.934;4.668;2023-01-08T06:10:29;3.97;;;1.30;;
21601;SDS011;10963;50.934;4.668;2023-01-08T06:12:54;5.17;;;1.07;;
21601;SDS011;10963;50.934;4.668;2023-01-08T06:15:20;7.33;;;1.23;;
21601;SDS011;10963;50.934;4.668;2023-01-08T06:17:46;6.73;;;1.13;;
21601;SDS011;10963;50.934;4.668;2023-01-08T06:20:12;6.50;;;1.50;;
21601;SDS011;10963;50.934;4.668;2023-01-08T06:22:38;7.27;;;1.17;;
21601;SDS011;10963;50.934;4.668;2023-01-08T06:25:05;4.37;;;1.20;;
21601;SDS011;10963;50.934;4.668;2023-01-08T06:27:31;10.03;;;1.17;;
21601;SDS011;10963;50.934;4.668;2023-01-08T06:29:57;6.63;;;1.37;;
21601;SDS011;10963;50.934;4.668;2023-01-08T06:32:23;6.63;;;2.00;;
21601;SDS011;10963;50.934;4.668;2023-01-08T06:34:51;6.20;;;1.73;;
21601;SDS011;10963;50.934;4.668;2023-01-08T06:37:17;8.40;;;1.30;;
21601;SDS011;10963;50.934;4.668;2023-01-08T06:39:47;5.93;;;1.47;;
21601;SDS011;10963;50.934;4.668;2023-01-08T06:42:16;9.40;;;1.00;;
21601;SDS011;10963;50.934;4.668;2023-01-08T06:44:44;8.33;;;1.80;;
21601;SDS011;10963;50.934;4.668;2023-01-08T06:47:14;10.70;;;1.43;;
21601;SDS011;10963;50.934;4.668;2023-01-08T06:49:42;8.57;;;1.90;;
21601;SDS011;10963;50.934;4.668;2023-01-08T06:52:08;5.07;;;2.23;;
21601;SDS011;10963;50.934;4.668;2023-01-08T06:54:34;6.10;;;1.57;;
21601;SDS011;10963;50.934;4.668;2023-01-08T06:57:02;8.43;;;1.70;;
21601;SDS011;10963;50.934;4.668;2023-01-08T06:59:28;11.97;;;2.10;;
21601;SDS011;10963;50.934;4.668;2023-01-08T07:01:56;5.17;;;1.57;;
21601;SDS011;10963;50.934;4.668;2023-01-08T07:04:22;7.73;;;2.43;;
21601;SDS011;10963;50.934;4.668;2023-01-08T07:06:47;6.40;;;1.90;;
21601;SDS011;10963;50.934;4.668;2023-01-08T07:09:15;6.63;;;1.90;;
21601;SDS011;10963;50.934;4.668;2023-01-08T07:11:41;6.43;;;1.70;;
21601;SDS011;10963;50.934;4.668;2023-01-08T07:14:09;7.73;;;2.00;;
21601;SDS011;10963;50.934;4.668;2023-01-08T07:16:35;8.57;;;2.27;;
21601;SDS011;10963;50.934;4.668;2023-01-08T07:19:03;9.97;;;1.80;;
21601;SDS011;10963;50.934;4.668;2023-01-08T07:21:29;11.47;;;2.10;;
21601;SDS011;10963;50.934;4.668;2023-01-08T07:23:55;7.37;;;2.10;;
21601;SDS011;10963;50.934;4.668;2023-01-08T07:26:21;7.40;;;1.80;;
21601;SDS011;10963;50.934;4.668;2023-01-08T07:28:49;7.33;;;1.73;;
21601;SDS011;10963;50.934;4.668;2023-01-08T07:31:14;6.07;;;1.73;;
21601;SDS011;10963;50.934;4.668;2023-01-08T07:33:40;6.00;;;1.60;;
21601;SDS011;10963;50.934;4.668;2023-01-08T07:36:06;7.60;;;1.77;;
21601;SDS011;10963;50.934;4.668;2023-01-08T07:38:36;7.03;;;1.90;;
21601;SDS011;10963;50.934;4.668;2023-01-08T07:41:02;11.03;;;2.00;;
21601;SDS011;10963;50.934;4.668;2023-01-08T07:43:28;8.80;;;1.97;;
21601;SDS011;10963;50.934;4.668;2023-01-08T07:45:54;10.63;;;2.00;;
21601;SDS011;10963;50.934;4.668;2023-01-08T07:48:20;7.60;;;2.20;;
21601;SDS011;10963;50.934;4.668;2023-01-08T07:50:46;10.27;;;2.10;;
21601;SDS011;10963;50.934;4.668;2023-01-08T07:53:14;10.07;;;2.30;;
21601;SDS011;10963;50.934;4.668;2023-01-08T07:55:42;7.37;;;1.90;;
21601;SDS011;10963;50.934;4.668;2023-01-08T07:58:11;4.63;;;2.10;;
21601;SDS011;10963;50.934;4.668;2023-01-08T08:00:38;5.83;;;1.77;;
21601;SDS011;10963;50.934;4.668;2023-01-08T08:03:05;11.00;;;2.17;;
21601;SDS011;10963;50.934;4.668;2023-01-08T08:05:33;8.23;;;1.97;;
21601;SDS011;10963;50.934;4.668;2023-01-08T08:07:59;8.40;;;2.00;;
21601;SDS011;10963;50.934;4.668;2023-01-08T08:10:25;7.60;;;2.60;;
21601;SDS011;10963;50.934;4.668;2023-01-08T08:12:51;9.90;;;2.10;;
21601;SDS011;10963;50.934;4.668;2023-01-08T08:15:16;10.03;;;2.30;;
21601;SDS011;10963;50.934;4.668;2023-01-08T08:17:48;10.97;;;2.27;;
21601;SDS011;10963;50.934;4.668;2023-01-08T08:20:17;9.20;;;2.17;;
21601;SDS011;10963;50.934;4.668;2023-01-08T08:22:44;12.03;;;2.20;;
21601;SDS011;10963;50.934;4.668;2023-01-08T08:25:13;9.17;;;1.80;;
21601;SDS011;10963;50.934;4.668;2023-01-08T08:27:42;8.23;;;2.20;;
21601;SDS011;10963;50.934;4.668;2023-01-08T08:30:10;8.33;;;2.53;;
21601;SDS011;10963;50.934;4.668;2023-01-08T08:32:36;9.83;;;2.20;;
21601;SDS011;10963;50.934;4.668;2023-01-08T08:35:03;11.23;;;2.97;;
21601;SDS011;10963;50.934;4.668;2023-01-08T08:37:29;15.80;;;2.93;;
21601;SDS011;10963;50.934;4.668;2023-01-08T08:39:57;9.83;;;2.07;;
21601;SDS011;10963;50.934;4.668;2023-01-08T08:42:27;7.20;;;2.43;;
21601;SDS011;10963;50.934;4.668;2023-01-08T08:44:53;13.10;;;2.40;;
21601;SDS011;10963;50.934;4.668;2023-01-08T08:47:21;10.67;;;2.40;;
21601;SDS011;10963;50.934;4.668;2023-01-08T08:49:47;13.37;;;2.70;;
21601;SDS011;10963;50.934;4.668;2023-01-08T08:52:15;10.83;;;2.90;;
21601;SDS011;10963;50.934;4.668;2023-01-08T08:54:40;11.47;;;2.90;;
21601;SDS011;10963;50.934;4.668;2023-01-08T08:57:07;10.90;;;2.40;;
21601;SDS011;10963;50.934;4.668;2023-01-08T08:59:37;6.27;;;2.20;;
21601;SDS011;10963;50.934;4.668;2023-01-08T09:02:03;9.50;;;2.23;;
21601;SDS011;10963;50.934;4.668;2023-01-08T09:04:30;4.83;;;1.80;;
21601;SDS011;10963;50.934;4.668;2023-01-08T09:07:01;5.43;;;1.83;;
21601;SDS011;10963;50.934;4.668;2023-01-08T09:09:29;7.47;;;1.63;;
21601;SDS011;10963;50.934;4.668;2023-01-08T09:11:54;6.90;;;1.70;;
21601;SDS011;10963;50.934;4.668;2023-01-08T09:14:20;3.23;;;1.03;;
21601;SDS011;10963;50.934;4.668;2023-01-08T09:16:46;5.17;;;1.50;;
21601;SDS011;10963;50.934;4.668;2023-01-08T09:19:12;1.90;;;1.00;;
21601;SDS011;10963;50.934;4.668;2023-01-08T09:21:37;1.97;;;1.00;;
21601;SDS011;10963;50.934;4.668;2023-01-08T09:24:03;0.53;;;0.53;;
21601;SDS011;10963;50.934;4.668;2023-01-08T09:26:29;4.47;;;0.87;;
21601;SDS011;10963;50.934;4.668;2023-01-08T09:28:59;1.10;;;1.00;;
21601;SDS011;10963;50.934;4.668;2023-01-08T09:31:27;0.47;;;0.47;;
21601;SDS011;10963;50.934;4.668;2023-01-08T09:33:55;1.53;;;0.53;;
21601;SDS011;10963;50.934;4.668;2023-01-08T09:36:23;0.60;;;0.50;;
21601;SDS011;10963;50.934;4.668;2023-01-08T09:38:51;2.87;;;0.50;;
21601;SDS011;10963;50.934;4.668;2023-01-08T09:43:55;1.80;;;0.47;;
21601;SDS011;10963;50.934;4.668;2023-01-08T09:46:23;1.57;;;0.50;;
21601;SDS011;10963;50.934;4.668;2023-01-08T09:48:53;0.40;;;0.40;;
21601;SDS011;10963;50.934;4.668;2023-01-08T09:51:22;0.60;;;0.60;;
21601;SDS011;10963;50.934;4.668;2023-01-08T09:53:57;1.40;;;0.60;;
21601;SDS011;10963;50.934;4.668;2023-01-08T09:56:25;0.97;;;0.57;;
21601;SDS011;10963;50.934;4.668;2023-01-08T09:58:52;1.53;;;0.77;;
21601;SDS011;10963;50.934;4.668;2023-01-08T10:01:23;1.93;;;0.70;;
21601;SDS011;10963;50.934;4.668;2023-01-08T10:04:36;0.63;;;0.60;;
21601;SDS011;10963;50.934;4.668;2023-01-08T10:09:15;1.00;;;0.73;;
21601;SDS011;10963;50.934;4.668;2023-01-08T10:11:46;2.17;;;0.70;;
21601;SDS011;10963;50.934;4.668;2023-01-08T10:14:24;1.77;;;0.73;;
21601;SDS011;10963;50.934;4.668;2023-01-08T10:16:56;3.80;;;0.70;;
21601;SDS011;10963;50.934;4.668;2023-01-08T10:19:25;2.17;;;1.00;;
21601;SDS011;10963;50.934;4.668;2023-01-08T10:21:53;0.80;;;0.70;;
21601;SDS011;10963;50.934;4.668;2023-01-08T10:24:34;0.80;;;0.60;;
21601;SDS011;10963;50.934;4.668;2023-01-08T10:27:07;4.67;;;1.13;;
21601;SDS011;10963;50.934;4.668;2023-01-08T10:29:36;2.60;;;1.00;;
21601;SDS011;10963;50.934;4.668;2023-01-08T10:35:06;3.60;;;0.83;;
21601;SDS011;10963;50.934;4.668;2023-01-08T10:37:42;1.90;;;1.00;;
21601;SDS011;10963;50.934;4.668;2023-01-08T10:42:55;1.83;;;1.20;;
21601;SDS011;10963;50.934;4.668;2023-01-08T10:45:29;3.90;;;1.00;;
21601;SDS011;10963;50.934;4.668;2023-01-08T10:47:58;2.60;;;1.03;;
21601;SDS011;10963;50.934;4.668;2023-01-08T10:50:29;5.07;;;1.27;;
21601;SDS011;10963;50.934;4.668;2023-01-08T10:52:58;5.50;;;1.40;;
21601;SDS011;10963;50.934;4.668;2023-01-08T10:55:27;4.63;;;1.10;;
21601;SDS011;10963;50.934;4.668;2023-01-08T11:00:26;6.07;;;1.13;;
21601;SDS011;10963;50.934;4.668;2023-01-08T11:02:56;7.97;;;1.60;;
21601;SDS011;10963;50.934;4.668;2023-01-08T11:05:29;4.83;;;1.20;;
21601;SDS011;10963;50.934;4.668;2023-01-08T11:07:58;2.60;;;1.37;;
21601;SDS011;10963;50.934;4.668;2023-01-08T11:10:27;3.27;;;1.00;;
21601;SDS011;10963;50.934;4.668;2023-01-08T11:13:01;4.13;;;1.23;;
21601;SDS011;10963;50.934;4.668;2023-01-08T11:18:09;6.00;;;1.40;;
21601;SDS011;10963;50.934;4.668;2023-01-08T11:20:44;4.53;;;1.10;;
21601;SDS011;10963;50.934;4.668;2023-01-08T11:23:14;4.13;;;1.10;;
21601;SDS011;10963;50.934;4.668;2023-01-08T11:28:39;5.40;;;1.13;;
21601;SDS011;10963;50.934;4.668;2023-01-08T11:31:16;4.97;;;1.60;;
21601;SDS011;10963;50.934;4.668;2023-01-08T11:34:03;6.60;;;1.10;;
21601;SDS011;10963;50.934;4.668;2023-01-08T11:36:45;1.33;;;0.80;;
21601;SDS011;10963;50.934;4.668;2023-01-08T11:39:18;3.97;;;1.20;;
21601;SDS011;10963;50.934;4.668;2023-01-08T11:42:03;6.60;;;1.30;;
21601;SDS011;10963;50.934;4.668;2023-01-08T11:45:28;3.13;;;1.20;;
21601;SDS011;10963;50.934;4.668;2023-01-08T11:48:04;3.03;;;1.10;;
21601;SDS011;10963;50.934;4.668;2023-01-08T12:01:52;5.67;;;1.20;;
21601;SDS011;10963;50.934;4.668;2023-01-08T12:07:12;2.90;;;1.13;;
21601;SDS011;10963;50.934;4.668;2023-01-08T12:09:43;3.60;;;1.17;;
21601;SDS011;10963;50.934;4.668;2023-01-08T12:15:19;2.23;;;1.00;;
21601;SDS011;10963;50.934;4.668;2023-01-08T12:21:01;6.57;;;1.20;;
21601;SDS011;10963;50.934;4.668;2023-01-08T12:26:25;5.93;;;1.17;;
21601;SDS011;10963;50.934;4.668;2023-01-08T12:32:00;8.63;;;1.20;;
21601;SDS011;10963;50.934;4.668;2023-01-08T12:37:38;4.47;;;1.13;;
21601;SDS011;10963;50.934;4.668;2023-01-08T12:40:26;3.40;;;0.97;;
21601;SDS011;10963;50.934;4.668;2023-01-08T12:42:57;3.00;;;1.10;;
21601;SDS011;10963;50.934;4.668;2023-01-08T12:45:31;3.33;;;1.17;;
21601;SDS011;10963;50.934;4.668;2023-01-08T12:48:06;8.60;;;1.30;;
21601;SDS011;10963;50.934;4.668;2023-01-08T12:56:22;2.47;;;1.37;;
21601;SDS011;10963;50.934;4.668;2023-01-08T13:04:19;6.87;;;1.20;;
21601;SDS011;10963;50.934;4.668;2023-01-08T13:09:23;6.30;;;1.43;;
21601;SDS011;10963;50.934;4.668;2023-01-08T13:11:50;3.30;;;1.03;;
21601;SDS011;10963;50.934;4.668;2023-01-08T13:14:20;3.10;;;1.50;;
21601;SDS011;10963;50.934;4.668;2023-01-08T13:16:47;4.50;;;1.17;;
21601;SDS011;10963;50.934;4.668;2023-01-08T13:19:41;3.40;;;0.97;;
21601;SDS011;10963;50.934;4.668;2023-01-08T13:22:25;4.57;;;1.37;;
21601;SDS011;10963;50.934;4.668;2023-01-08T13:25:08;5.17;;;1.40;;
21601;SDS011;10963;50.934;4.668;2023-01-08T13:27:34;3.47;;;0.97;;
21601;SDS011;10963;50.934;4.668;2023-01-08T13:29:59;5.87;;;1.73;;
21601;SDS011;10963;50.934;4.668;2023-01-08T13:37:46;9.17;;;2.03;;
21601;SDS011;10963;50.934;4.668;2023-01-08T13:40:50;5.60;;;1.40;;
21601;SDS011;10963;50.934;4.668;2023-01-08T13:43:13;9.67;;;1.60;;
21601;SDS011;10963;50.934;4.668;2023-01-08T13:45:43;8.57;;;1.07;;
21601;SDS011;10963;50.934;4.668;2023-01-08T13:48:20;5.93;;;1.47;;
21601;SDS011;10963;50.934;4.668;2023-01-08T13:50:47;6.70;;;1.43;;
21601;SDS011;10963;50.934;4.668;2023-01-08T13:53:16;6.20;;;1.70;;
21601;SDS011;10963;50.934;4.668;2023-01-08T13:55:46;5.97;;;1.60;;
21601;SDS011;10963;50.934;4.668;2023-01-08T14:00:55;8.77;;;1.60;;
21601;SDS011;10963;50.934;4.668;2023-01-08T14:05:51;7.13;;;2.67;;
21601;SDS011;10963;50.934;4.668;2023-01-08T14:08:28;4.93;;;1.20;;
21601;SDS011;10963;50.934;4.668;2023-01-08T14:10:56;4.77;;;1.30;;
21601;SDS011;10963;50.934;4.668;2023-01-08T14:13:26;3.37;;;1.07;;
21601;SDS011;10963;50.934;4.668;2023-01-08T14:16:01;5.33;;;1.60;;
21601;SDS011;10963;50.934;4.668;2023-01-08T14:18:29;4.00;;;1.20;;
21601;SDS011;10963;50.934;4.668;2023-01-08T14:20:58;4.60;;;1.00;;
21601;SDS011;10963;50.934;4.668;2023-01-08T14:23:26;2.83;;;1.00;;
21601;SDS011;10963;50.934;4.668;2023-01-08T14:25:56;1.53;;;0.90;;
21601;SDS011;10963;50.934;4.668;2023-01-08T14:28:29;3.47;;;1.30;;
21601;SDS011;10963;50.934;4.668;2023-01-08T14:30:55;4.70;;;0.93;;
21601;SDS011;10963;50.934;4.668;2023-01-08T14:33:28;2.93;;;1.00;;
21601;SDS011;10963;50.934;4.668;2023-01-08T14:36:01;4.10;;;1.20;;
21601;SDS011;10963;50.934;4.668;2023-01-08T14:38:30;2.37;;;0.90;;
21601;SDS011;10963;50.934;4.668;2023-01-08T14:43:31;1.90;;;1.20;;
21601;SDS011;10963;50.934;4.668;2023-01-08T14:46:02;3.77;;;0.93;;
21601;SDS011;10963;50.934;4.668;2023-01-08T14:48:33;2.37;;;1.27;;
21601;SDS011;10963;50.934;4.668;2023-01-08T14:51:08;3.93;;;1.90;;
21601;SDS011;10963;50.934;4.668;2023-01-08T14:53:44;4.07;;;1.47;;
21601;SDS011;10963;50.934;4.668;2023-01-08T14:56:15;4.57;;;1.17;;
21601;SDS011;10963;50.934;4.668;2023-01-08T14:58:44;2.97;;;1.77;;
21601;SDS011;10963;50.934;4.668;2023-01-08T15:01:19;3.57;;;1.10;;
21601;SDS011;10963;50.934;4.668;2023-01-08T15:03:48;6.43;;;1.70;;
21601;SDS011;10963;50.934;4.668;2023-01-08T15:06:25;3.57;;;1.30;;
21601;SDS011;10963;50.934;4.668;2023-01-08T15:08:55;4.13;;;1.50;;
21601;SDS011;10963;50.934;4.668;2023-01-08T15:13:53;6.27;;;2.00;;
21601;SDS011;10963;50.934;4.668;2023-01-08T15:21:27;7.70;;;1.33;;
21601;SDS011;10963;50.934;4.668;2023-01-08T15:23:56;3.63;;;1.60;;
21601;SDS011;10963;50.934;4.668;2023-01-08T15:26:23;3.63;;;1.00;;
21601;SDS011;10963;50.934;4.668;2023-01-08T15:28:55;3.37;;;1.43;;
21601;SDS011;10963;50.934;4.668;2023-01-08T15:31:31;4.27;;;1.87;;
21601;SDS011;10963;50.934;4.668;2023-01-08T15:34:18;5.50;;;2.03;;
21601;SDS011;10963;50.934;4.668;2023-01-08T15:36:46;6.47;;;1.60;;
21601;SDS011;10963;50.934;4.668;2023-01-08T15:39:15;9.17;;;2.60;;
21601;SDS011;10963;50.934;4.668;2023-01-08T15:41:43;5.63;;;1.37;;
21601;SDS011;10963;50.934;4.668;2023-01-08T15:44:29;5.43;;;2.90;;
21601;SDS011;10963;50.934;4.668;2023-01-08T15:46:57;11.80;;;4.37;;
21601;SDS011;10963;50.934;4.668;2023-01-08T15:49:23;14.37;;;5.20;;
21601;SDS011;10963;50.934;4.668;2023-01-08T15:51:49;12.90;;;5.20;;
21601;SDS011;10963;50.934;4.668;2023-01-08T15:54:16;13.20;;;3.93;;
21601;SDS011;10963;50.934;4.668;2023-01-08T15:56:47;10.03;;;3.50;;
21601;SDS011;10963;50.934;4.668;2023-01-08T15:59:13;7.70;;;3.03;;
21601;SDS011;10963;50.934;4.668;2023-01-08T16:01:41;11.03;;;3.83;;
21601;SDS011;10963;50.934;4.668;2023-01-08T16:04:09;8.40;;;4.87;;
21601;SDS011;10963;50.934;4.668;2023-01-08T16:06:35;15.53;;;5.70;;
21601;SDS011;10963;50.934;4.668;2023-01-08T16:09:01;11.53;;;3.93;;
21601;SDS011;10963;50.934;4.668;2023-01-08T16:11:27;6.27;;;3.03;;
21601;SDS011;10963;50.934;4.668;2023-01-08T16:13:55;10.63;;;4.70;;
21601;SDS011;10963;50.934;4.668;2023-01-08T16:16:21;19.07;;;9.00;;
21601;SDS011;10963;50.934;4.668;2023-01-08T16:18:46;10.97;;;5.10;;
21601;SDS011;10963;50.934;4.668;2023-01-08T16:21:12;9.70;;;4.33;;
21601;SDS011;10963;50.934;4.668;2023-01-08T16:23:40;6.67;;;2.83;;
21601;SDS011;10963;50.934;4.668;2023-01-08T16:26:07;6.87;;;2.10;;
21601;SDS011;10963;50.934;4.668;2023-01-08T16:28:37;6.90;;;2.97;;
21601;SDS011;10963;50.934;4.668;2023-01-08T16:31:08;10.60;;;3.63;;
21601;SDS011;10963;50.934;4.668;2023-01-08T16:33:34;7.10;;;2.20;;